createdAt,value
2022-09-04T00:01:38.035Z,21.40
2022-09-04T00:03:50.263Z,21.30
2022-09-04T00:05:53.306Z,21.30
2022-09-04T00:08:04.130Z,21.30
2022-09-04T00:10:19.045Z,21.30
2022-09-04T00:12:28.028Z,21.30
2022-09-04T00:14:40.042Z,21.30
2022-09-04T00:16:54.804Z,21.30
2022-09-04T00:19:03.154Z,21.30
2022-09-04T00:21:16.906Z,21.30
2022-09-04T00:23:18.621Z,21.30
2022-09-04T00:25:43.728Z,21.20
2022-09-04T00:27:47.611Z,21.30
2022-09-04T00:29:51.961Z,21.20
2022-09-04T00:32:12.440Z,21.20
2022-09-04T00:34:16.739Z,21.20
2022-09-04T00:36:19.135Z,21.20
2022-09-04T00:38:39.750Z,21.20
2022-09-04T00:40:43.074Z,21.20
2022-09-04T00:43:06.538Z,21.20
2022-09-04T00:45:31.565Z,21.20
2022-09-04T00:47:51.892Z,21.20
2022-09-04T00:50:06.987Z,21.10
2022-09-04T00:52:36.859Z,21.10
2022-09-04T00:54:44.750Z,21.10
2022-09-04T00:57:01.717Z,21.10
2022-09-04T00:59:03.361Z,21.10
2022-09-04T01:01:05.467Z,21.10
2022-09-04T01:03:07.225Z,21.10
2022-09-04T01:05:19.599Z,21.10
2022-09-04T01:07:27.538Z,21.10
2022-09-04T01:09:31.067Z,21.10
2022-09-04T01:11:49.219Z,21.20
2022-09-04T01:13:50.879Z,21.10
2022-09-04T01:15:57.555Z,21.10
2022-09-04T01:18:11.957Z,21.10
2022-09-04T01:20:20.240Z,21.10
2022-09-04T01:22:30.709Z,21.10
2022-09-04T01:24:41.725Z,21.10
2022-09-04T01:26:47.810Z,21.10
2022-09-04T01:29:10.178Z,21.10
2022-09-04T01:31:20.873Z,21.10
2022-09-04T01:33:25.361Z,21.10
2022-09-04T01:35:35.107Z,21.10
2022-09-04T01:37:41.665Z,21.10
2022-09-04T01:39:45.439Z,21.00
2022-09-04T01:41:56.448Z,21.00
2022-09-04T01:43:58.103Z,21.10
2022-09-04T01:45:59.849Z,21.10
2022-09-04T01:48:03.750Z,21.10
2022-09-04T01:50:07.955Z,21.10
2022-09-04T01:52:36.480Z,21.00
2022-09-04T01:54:38.130Z,21.00
2022-09-04T01:56:42.885Z,21.00
2022-09-04T01:59:03.060Z,21.00
2022-09-04T02:01:15.041Z,21.00
2022-09-04T02:03:26.636Z,21.00
2022-09-04T02:05:28.415Z,21.00
2022-09-04T02:07:30.039Z,21.00
2022-09-04T02:09:48.282Z,21.00
2022-09-04T02:11:57.163Z,21.00
2022-09-04T02:14:11.354Z,21.00
2022-09-04T02:16:15.893Z,21.00
2022-09-04T02:18:44.325Z,21.00
2022-09-04T02:20:52.668Z,20.90
2022-09-04T02:23:11.676Z,20.90
2022-09-04T02:25:31.794Z,20.90
2022-09-04T02:27:59.215Z,20.90
2022-09-04T02:30:20.490Z,20.90
2022-09-04T02:32:30.972Z,20.90
2022-09-04T02:34:45.522Z,20.90
2022-09-04T02:36:50.362Z,20.90
2022-09-04T02:38:54.898Z,20.90
2022-09-04T02:41:03.978Z,20.90
2022-09-04T02:43:05.654Z,20.90
2022-09-04T02:45:07.282Z,20.90
2022-09-04T02:47:30.870Z,20.90
2022-09-04T02:49:58.287Z,20.90
2022-09-04T02:52:17.065Z,20.90
2022-09-04T02:54:45.059Z,20.80
2022-09-04T02:56:46.708Z,20.80
2022-09-04T02:58:50.986Z,20.80
2022-09-04T03:01:02.932Z,20.80
2022-09-04T03:03:23.582Z,20.80
2022-09-04T03:05:31.301Z,20.80
2022-09-04T03:07:38.005Z,20.80
2022-09-04T03:09:44.568Z,20.80
2022-09-04T03:11:53.286Z,20.80
2022-09-04T03:14:03.745Z,20.80
2022-09-04T03:16:05.464Z,20.80
2022-09-04T03:18:16.823Z,20.70
2022-09-04T03:20:23.284Z,20.70
2022-09-04T03:22:39.669Z,20.70
2022-09-04T03:24:41.323Z,20.80
2022-09-04T03:26:56.564Z,20.70
2022-09-04T03:29:16.845Z,20.70
2022-09-04T03:31:24.348Z,20.70
2022-09-04T03:33:41.256Z,20.80
2022-09-04T03:35:42.903Z,20.70
2022-09-04T03:37:56.627Z,20.70
2022-09-04T03:39:58.555Z,20.70
2022-09-04T03:42:21.228Z,20.70
2022-09-04T03:44:55.330Z,20.70
2022-09-04T03:46:59.787Z,20.70
2022-09-04T03:49:07.253Z,20.70
2022-09-04T03:51:35.247Z,20.70
2022-09-04T03:53:41.444Z,20.70
2022-09-04T03:56:01.457Z,20.70
2022-09-04T03:58:03.054Z,20.70
2022-09-04T04:00:09.454Z,20.70
2022-09-04T04:02:35.660Z,20.70
2022-09-04T04:04:52.953Z,20.70
2022-09-04T04:07:01.559Z,20.70
2022-09-04T04:09:22.029Z,20.70
2022-09-04T04:11:26.754Z,20.60
2022-09-04T04:13:34.135Z,20.60
2022-09-04T04:15:42.057Z,20.60
2022-09-04T04:17:47.609Z,20.60
2022-09-04T04:19:58.066Z,20.60
2022-09-04T04:22:02.832Z,20.60
2022-09-04T04:24:29.818Z,20.60
2022-09-04T04:26:43.388Z,20.60
2022-09-04T04:29:02.710Z,20.60
2022-09-04T04:31:11.034Z,20.60
2022-09-04T04:33:12.828Z,20.60
2022-09-04T04:35:17.386Z,20.60
2022-09-04T04:37:34.393Z,20.60
2022-09-04T04:39:54.757Z,20.60
2022-09-04T04:42:19.210Z,20.60
2022-09-04T04:44:44.608Z,20.70
2022-09-04T04:46:52.221Z,20.60
2022-09-04T04:49:00.144Z,20.70
2022-09-04T04:51:14.024Z,20.70
2022-09-04T04:53:22.571Z,20.70
2022-09-04T04:55:43.019Z,20.70
2022-09-04T04:58:03.663Z,20.70
2022-09-04T05:00:08.754Z,20.70
2022-09-04T05:02:18.547Z,20.70
2022-09-04T05:04:25.180Z,20.70
2022-09-04T05:06:47.740Z,20.70
2022-09-04T05:09:08.803Z,20.70
2022-09-04T05:11:18.842Z,20.70
2022-09-04T05:13:20.496Z,20.70
2022-09-04T05:15:36.004Z,20.70
2022-09-04T05:17:55.852Z,20.80
2022-09-04T05:20:03.150Z,20.80
2022-09-04T05:22:07.603Z,20.80
2022-09-04T05:24:12.329Z,20.80
2022-09-04T05:26:14.057Z,20.80
2022-09-04T05:28:42.107Z,20.80
2022-09-04T05:30:48.638Z,20.80
2022-09-04T05:32:58.699Z,20.80
2022-09-04T05:35:17.885Z,20.80
2022-09-04T05:37:23.099Z,20.80
2022-09-04T05:39:25.490Z,20.90
2022-09-04T05:41:30.194Z,20.80
2022-09-04T05:43:49.771Z,20.80
2022-09-04T05:46:10.385Z,20.80
2022-09-04T05:48:14.945Z,20.80
2022-09-04T05:50:28.701Z,20.90
2022-09-04T05:52:49.263Z,20.80
2022-09-04T05:55:10.135Z,20.90
2022-09-04T05:57:24.975Z,20.90
2022-09-04T05:59:32.450Z,20.90
2022-09-04T06:01:40.062Z,20.90
2022-09-04T06:03:50.676Z,20.90
2022-09-04T06:06:04.859Z,20.90
2022-09-04T06:08:44.861Z,20.90
2022-09-04T06:11:05.122Z,20.90
2022-09-04T06:13:19.122Z,20.90
2022-09-04T06:15:36.349Z,20.90
2022-09-04T06:17:38.000Z,20.90
2022-09-04T06:19:39.675Z,20.90
2022-09-04T06:21:41.309Z,20.90
2022-09-04T06:23:48.896Z,20.90
2022-09-04T06:25:50.532Z,20.90
2022-09-04T06:28:07.540Z,20.90
2022-09-04T06:30:10.831Z,20.90
2022-09-04T06:32:12.490Z,20.90
2022-09-04T06:34:22.320Z,20.90
2022-09-04T06:36:43.048Z,20.90
2022-09-04T06:38:53.296Z,20.90
2022-09-04T06:41:11.409Z,20.90
2022-09-04T06:43:26.464Z,20.90
2022-09-04T06:45:35.280Z,20.90
2022-09-04T06:47:36.910Z,20.90
2022-09-04T06:49:58.731Z,20.90
2022-09-04T06:52:12.913Z,20.90
2022-09-04T06:54:19.097Z,20.90
2022-09-04T06:56:28.655Z,21.00
2022-09-04T06:58:43.126Z,21.00
2022-09-04T07:00:47.938Z,21.00
2022-09-04T07:02:56.462Z,21.00
2022-09-04T07:05:04.306Z,21.10
2022-09-04T07:07:05.999Z,21.10
2022-09-04T07:09:07.657Z,21.10
2022-09-04T07:11:18.816Z,21.00
2022-09-04T07:13:23.703Z,21.10
2022-09-04T07:15:38.432Z,21.10
2022-09-04T07:18:01.363Z,21.10
2022-09-04T07:20:11.075Z,21.10
2022-09-04T07:22:25.051Z,21.10
2022-09-04T07:24:52.343Z,21.10
2022-09-04T07:26:58.782Z,21.10
2022-09-04T07:29:22.602Z,21.10
2022-09-04T07:31:33.082Z,21.20
2022-09-04T07:33:53.113Z,21.20
2022-09-04T07:36:08.006Z,21.20
2022-09-04T07:38:12.426Z,21.20
2022-09-04T07:40:23.117Z,21.20
2022-09-04T07:42:30.948Z,21.20
2022-09-04T07:44:39.524Z,21.30
2022-09-04T07:46:55.072Z,21.30
2022-09-04T07:49:10.754Z,21.30
2022-09-04T07:51:15.395Z,21.30
2022-09-04T07:53:17.058Z,21.30
2022-09-04T07:55:37.755Z,21.30
2022-09-04T07:58:04.337Z,21.40
2022-09-04T08:00:08.654Z,21.40
2022-09-04T08:02:35.213Z,21.40
2022-09-04T08:04:49.220Z,21.40
2022-09-04T08:06:53.787Z,21.40
2022-09-04T08:09:06.640Z,21.40
2022-09-04T08:11:17.564Z,21.40
2022-09-04T08:13:28.073Z,21.40
2022-09-04T08:15:49.114Z,21.40
2022-09-04T08:18:01.463Z,21.40
2022-09-04T08:20:11.849Z,21.40
2022-09-04T08:22:19.896Z,21.50
2022-09-04T08:24:41.269Z,21.40
2022-09-04T08:26:42.915Z,21.50
2022-09-04T08:28:58.218Z,21.50
2022-09-04T08:31:06.170Z,21.50
2022-09-04T08:33:27.450Z,21.50
2022-09-04T08:36:07.566Z,21.50
2022-09-04T08:38:09.233Z,21.60
2022-09-04T08:40:29.694Z,21.60
2022-09-04T08:42:49.895Z,21.60
2022-09-04T08:45:11.534Z,21.60
2022-09-04T08:47:32.119Z,21.70
2022-09-04T08:49:46.914Z,21.70
2022-09-04T08:51:51.712Z,21.80
2022-09-04T08:53:56.871Z,21.80
2022-09-04T08:56:10.150Z,21.90
2022-09-04T08:58:30.307Z,21.90
2022-09-04T09:00:39.087Z,21.90
2022-09-04T09:03:13.297Z,22.00
2022-09-04T09:05:30.113Z,22.00
2022-09-04T09:07:37.562Z,22.10
2022-09-04T09:09:42.618Z,22.10
2022-09-04T09:12:02.624Z,22.20
2022-09-04T09:14:16.444Z,22.30
2022-09-04T09:16:21.180Z,22.30
2022-09-04T09:18:41.504Z,22.40
2022-09-04T09:21:03.440Z,22.40
2022-09-04T09:23:22.623Z,22.50
2022-09-04T09:25:24.683Z,22.60
2022-09-04T09:27:58.927Z,22.60
2022-09-04T09:30:00.808Z,22.60
2022-09-04T09:32:07.111Z,22.70
2022-09-04T09:34:27.040Z,22.80
2022-09-04T09:36:47.321Z,22.80
2022-09-04T09:38:58.295Z,22.90
2022-09-04T09:41:06.414Z,23.00
2022-09-04T09:43:17.181Z,23.00
2022-09-04T09:45:37.672Z,23.10
2022-09-04T09:47:54.894Z,23.20
2022-09-04T09:50:15.375Z,23.20
2022-09-04T09:52:17.122Z,23.30
2022-09-04T09:54:18.769Z,23.40
2022-09-04T09:56:39.043Z,23.50
2022-09-04T09:58:51.880Z,23.50
2022-09-04T10:01:00.159Z,23.60
2022-09-04T10:03:08.305Z,23.70
2022-09-04T10:05:12.833Z,23.70
2022-09-04T10:07:19.911Z,23.80
2022-09-04T10:09:34.541Z,23.80
2022-09-04T10:11:54.928Z,23.90
2022-09-04T10:14:25.278Z,23.90
2022-09-04T10:16:44.899Z,24.00
2022-09-04T10:19:05.431Z,24.00
2022-09-04T10:21:26.071Z,24.10
2022-09-04T10:23:46.618Z,24.20
2022-09-04T10:25:48.236Z,24.30
2022-09-04T10:27:59.273Z,24.30
2022-09-04T10:30:10.139Z,24.30
2022-09-04T10:32:37.665Z,24.40
2022-09-04T10:34:58.144Z,24.40
2022-09-04T10:37:17.268Z,24.50
2022-09-04T10:39:41.009Z,24.60
2022-09-04T10:41:58.172Z,24.60
2022-09-04T10:44:18.510Z,24.70
2022-09-04T10:46:43.782Z,24.70
2022-09-04T10:49:04.060Z,24.80
2022-09-04T10:51:25.419Z,24.90
2022-09-04T10:53:56.563Z,25.00
2022-09-04T10:58:32.425Z,25.10
2022-09-04T11:00:54.623Z,25.20
2022-09-04T11:03:06.492Z,25.20
2022-09-04T11:05:27.702Z,25.30
2022-09-04T11:07:49.184Z,25.40
2022-09-04T11:09:56.546Z,25.50
2022-09-04T11:12:07.528Z,25.60
2022-09-04T11:14:20.573Z,25.70
2022-09-04T11:16:31.014Z,25.80
2022-09-04T11:18:53.471Z,25.80
2022-09-04T11:21:02.940Z,26.00
2022-09-04T11:23:23.158Z,26.00
2022-09-04T11:25:44.595Z,26.10
2022-09-04T11:27:49.493Z,26.10
2022-09-04T11:30:20.673Z,26.20
2022-09-04T11:32:40.915Z,26.30
2022-09-04T11:34:42.679Z,26.30
2022-09-04T11:36:56.846Z,26.50
2022-09-04T11:39:10.331Z,26.50
2022-09-04T11:41:17.997Z,26.70
2022-09-04T11:43:31.932Z,26.80
2022-09-04T11:45:36.517Z,26.90
2022-09-04T11:48:02.666Z,27.10
2022-09-04T11:50:04.424Z,27.10
2022-09-04T11:52:26.466Z,27.30
2022-09-04T11:54:43.453Z,27.40
2022-09-04T11:57:07.035Z,27.60
2022-09-04T11:59:08.780Z,27.70
2022-09-04T12:01:35.407Z,27.90
2022-09-04T12:03:49.538Z,27.90
2022-09-04T12:06:09.950Z,28.10
2022-09-04T12:08:32.527Z,28.10
2022-09-04T12:10:45.052Z,28.20
2022-09-04T12:13:14.727Z,28.40
2022-09-04T12:15:23.999Z,28.40
2022-09-04T12:17:58.288Z,28.60
2022-09-04T12:20:24.050Z,28.70
2022-09-04T12:22:44.793Z,28.80
2022-09-04T12:25:05.306Z,28.90
2022-09-04T12:27:21.135Z,29.00
2022-09-04T12:29:35.216Z,29.10
2022-09-04T12:31:56.795Z,29.20
2022-09-04T12:34:18.253Z,29.30
2022-09-04T12:36:38.716Z,29.40
2022-09-04T12:38:56.752Z,29.50
2022-09-04T12:41:13.520Z,29.60
2022-09-04T12:43:29.312Z,29.60
2022-09-04T12:45:31.151Z,29.70
2022-09-04T12:47:55.517Z,29.80
2022-09-04T12:50:04.873Z,29.90
2022-09-04T12:52:09.640Z,29.90
2022-09-04T12:54:11.292Z,30.00
2022-09-04T12:56:16.912Z,30.10
2022-09-04T12:58:31.155Z,30.10
2022-09-04T13:00:48.738Z,30.20
2022-09-04T13:03:11.789Z,30.20
2022-09-04T13:05:33.482Z,30.30
2022-09-04T13:07:44.558Z,30.30
2022-09-04T13:09:53.560Z,30.30
2022-09-04T13:11:58.643Z,30.40
2022-09-04T13:14:00.315Z,30.50
2022-09-04T13:16:07.095Z,30.50
2022-09-04T13:18:24.164Z,30.50
2022-09-04T13:20:34.953Z,30.60
2022-09-04T13:22:50.647Z,30.60
2022-09-04T13:25:02.745Z,30.70
2022-09-04T13:27:26.583Z,30.70
2022-09-04T13:29:44.315Z,30.70
2022-09-04T13:31:46.085Z,30.80
2022-09-04T13:34:06.130Z,30.80
2022-09-04T13:36:19.779Z,30.90
2022-09-04T13:38:42.327Z,30.90
2022-09-04T13:41:00.704Z,30.90
2022-09-04T13:43:11.280Z,30.90
2022-09-04T13:45:15.213Z,30.90
2022-09-04T13:47:20.970Z,30.90
2022-09-04T13:49:29.572Z,30.90
2022-09-04T13:51:34.287Z,30.90
2022-09-04T13:53:40.446Z,30.90
2022-09-04T13:55:48.007Z,30.90
2022-09-04T13:57:53.856Z,30.90
2022-09-04T13:59:59.158Z,30.90
2022-09-04T14:02:04.720Z,30.90
2022-09-04T14:04:11.261Z,30.90
2022-09-04T14:06:14.939Z,30.90
2022-09-04T14:08:20.540Z,30.90
2022-09-04T14:10:25.624Z,30.90
2022-09-04T14:12:46.626Z,30.90
2022-09-04T14:15:14.451Z,31.00
2022-09-04T14:17:20.215Z,31.00
2022-09-04T14:19:46.166Z,31.00
2022-09-04T14:22:14.930Z,31.10
2022-09-04T14:24:35.056Z,31.10
2022-09-04T14:26:54.084Z,31.20
2022-09-04T14:28:58.628Z,31.30
2022-09-04T14:31:00.329Z,31.40
2022-09-04T14:33:08.786Z,31.50
2022-09-04T14:35:43.692Z,31.50
2022-09-04T14:37:54.714Z,31.60
2022-09-04T14:39:57.727Z,31.70
2022-09-04T14:42:09.886Z,31.80
2022-09-04T14:44:20.819Z,31.80
2022-09-04T14:46:33.406Z,31.90
2022-09-04T14:48:40.352Z,31.90
2022-09-04T14:50:48.264Z,32.00
2022-09-04T14:53:10.227Z,32.00
2022-09-04T14:55:14.283Z,32.00
2022-09-04T14:57:17.664Z,32.00
2022-09-04T14:59:23.468Z,32.10
2022-09-04T15:01:25.787Z,32.10
2022-09-04T15:03:29.997Z,32.20
2022-09-04T15:05:34.220Z,32.20
2022-09-04T15:07:41.740Z,32.20
2022-09-04T15:09:45.700Z,32.20
2022-09-04T15:11:48.389Z,32.30
2022-09-04T15:13:55.356Z,32.30
2022-09-04T15:15:59.934Z,32.40
2022-09-04T15:18:39.006Z,32.40
2022-09-04T15:20:47.338Z,32.40
2022-09-04T15:22:51.665Z,32.50
2022-09-04T15:25:04.283Z,32.50
2022-09-04T15:27:12.713Z,32.50
2022-09-04T15:29:19.054Z,32.50
2022-09-04T15:31:20.824Z,32.50
2022-09-04T15:33:22.682Z,32.60
2022-09-04T15:35:32.727Z,32.60
2022-09-04T15:37:35.336Z,32.60
2022-09-04T15:39:39.968Z,32.60
2022-09-04T15:41:47.027Z,32.70
2022-09-04T15:43:54.813Z,32.70
2022-09-04T15:45:59.755Z,32.70
2022-09-04T15:48:24.583Z,32.80
2022-09-04T15:50:27.774Z,32.80
2022-09-04T15:52:37.056Z,32.80
2022-09-04T15:54:41.565Z,32.90
2022-09-04T15:56:47.405Z,32.90
2022-09-04T15:58:51.038Z,32.90
2022-09-04T16:01:08.603Z,32.90
2022-09-04T16:03:16.695Z,32.90
2022-09-04T16:05:24.015Z,32.90
2022-09-04T16:07:36.608Z,32.90
2022-09-04T16:09:39.916Z,32.90
2022-09-04T16:11:45.219Z,32.90
2022-09-04T16:13:49.857Z,32.90
2022-09-04T16:16:11.890Z,32.80
2022-09-04T16:18:15.815Z,32.70
2022-09-04T16:20:36.425Z,32.50
2022-09-04T16:22:38.100Z,32.50
2022-09-04T16:24:45.977Z,32.30
2022-09-04T16:26:50.563Z,32.20
2022-09-04T16:28:58.629Z,32.00
2022-09-04T16:31:04.718Z,31.80
2022-09-04T16:33:26.966Z,31.70
2022-09-04T16:35:33.100Z,31.50
2022-09-04T16:37:34.778Z,31.40
2022-09-04T16:39:42.656Z,31.20
2022-09-04T16:41:50.514Z,31.10
2022-09-04T16:44:11.122Z,30.90
2022-09-04T16:46:27.301Z,30.70
2022-09-04T16:48:35.971Z,30.60
2022-09-04T16:50:48.617Z,30.40
2022-09-04T16:53:13.096Z,30.30
2022-09-04T16:55:24.619Z,30.10
2022-09-04T16:57:29.310Z,30.00
2022-09-04T16:59:58.629Z,29.80
2022-09-04T17:02:08.849Z,29.70
2022-09-04T17:04:14.504Z,29.60
2022-09-04T17:06:21.599Z,29.50
2022-09-04T17:08:41.952Z,29.30
2022-09-04T17:10:46.369Z,29.20
2022-09-04T17:12:57.106Z,29.10
2022-09-04T17:15:09.319Z,29.00
2022-09-04T17:17:30.138Z,28.80
2022-09-04T17:19:33.742Z,28.70
2022-09-04T17:28:59.806Z,28.60
2022-09-04T17:29:02.055Z,28.50
2022-09-04T17:29:15.594Z,28.40
2022-09-04T17:29:33.757Z,28.20
2022-09-04T17:31:45.312Z,28.10
2022-09-04T17:40:31.818Z,28.00
2022-09-04T17:40:48.342Z,27.90
2022-09-04T17:40:57.402Z,27.90
2022-09-04T17:41:38.134Z,27.70
2022-09-04T17:44:09.159Z,27.70
2022-09-04T17:46:12.596Z,27.60
2022-09-04T17:48:19.910Z,27.50
2022-09-04T17:50:25.262Z,27.40
2022-09-04T17:52:28.624Z,27.30
2022-09-04T17:54:32.605Z,27.30
2022-09-04T17:56:34.352Z,27.20
2022-09-04T17:58:48.065Z,27.10
2022-09-04T18:01:14.908Z,27.00
2022-09-04T18:03:23.240Z,26.90
2022-09-04T18:05:49.176Z,26.90
2022-09-04T18:08:13.180Z,26.80
2022-09-04T18:10:23.276Z,26.70
2022-09-04T18:12:31.332Z,26.60
2022-09-04T18:15:22.426Z,26.60
2022-09-04T18:17:39.686Z,26.50
2022-09-04T18:19:48.777Z,26.40
2022-09-04T18:22:07.784Z,26.30
2022-09-04T18:24:26.571Z,26.30
2022-09-04T18:26:41.459Z,26.20
2022-09-04T18:30:57.184Z,26.10
2022-09-04T18:37:13.236Z,26.10
2022-09-04T18:37:21.673Z,25.90
2022-09-04T18:37:26.041Z,26.00
2022-09-04T18:39:18.979Z,25.80
2022-09-04T18:44:58.462Z,25.70
2022-09-04T18:50:21.408Z,25.70
2022-09-04T18:50:36.968Z,25.60
2022-09-04T18:50:50.179Z,25.60
2022-09-04T18:51:19.669Z,25.50
2022-09-04T18:53:26.608Z,25.40
2022-09-04T18:55:33.663Z,25.40
2022-09-04T18:57:49.076Z,25.40
2022-09-04T18:59:59.780Z,25.30
2022-09-04T19:02:17.921Z,25.20
2022-09-04T19:04:28.555Z,25.20
2022-09-04T19:07:07.330Z,25.10
2022-09-04T19:09:14.732Z,25.10
2022-09-04T19:11:21.649Z,25.00
2022-09-04T19:13:28.818Z,25.00
2022-09-04T19:15:36.789Z,24.90
2022-09-04T19:17:40.561Z,24.90
2022-09-04T19:19:46.585Z,24.90
2022-09-04T19:21:57.671Z,24.80
2022-09-04T19:24:05.247Z,24.80
2022-09-04T19:26:27.511Z,24.70
2022-09-04T19:28:40.203Z,24.70
2022-09-04T19:30:50.607Z,24.70
2022-09-04T19:32:59.823Z,24.60
2022-09-04T19:35:04.785Z,24.60
2022-09-04T19:40:13.771Z,24.50
2022-09-04T19:45:54.732Z,24.50
2022-09-04T19:46:13.205Z,24.40
2022-09-04T19:46:14.472Z,24.50
2022-09-04T19:47:38.078Z,24.40
2022-09-04T19:53:17.854Z,24.40
2022-09-04T19:53:30.935Z,24.30
2022-09-04T19:54:31.823Z,24.30
2022-09-04T19:56:45.719Z,24.30
2022-09-04T19:59:17.656Z,24.30
2022-09-04T20:01:22.765Z,24.20
2022-09-04T20:03:31.237Z,24.20
2022-09-04T20:05:34.291Z,24.20
2022-09-04T20:07:55.408Z,24.10
2022-09-04T20:09:59.032Z,24.10
2022-09-04T20:12:24.151Z,24.10
2022-09-04T20:14:25.942Z,24.10
2022-09-04T20:16:40.097Z,24.00
2022-09-04T20:18:55.793Z,24.00
2022-09-04T20:21:05.368Z,24.00
2022-09-04T20:23:39.779Z,24.00
2022-09-04T20:25:55.783Z,23.90
2022-09-04T20:28:10.480Z,23.90
2022-09-04T20:30:16.663Z,23.90
2022-09-04T20:32:22.361Z,23.90
2022-09-04T20:34:50.552Z,23.90
2022-09-04T20:36:57.408Z,23.80
2022-09-04T20:39:16.175Z,23.80
2022-09-04T20:41:23.770Z,23.80
2022-09-04T20:43:31.561Z,23.80
2022-09-04T20:49:35.332Z,23.80
2022-09-04T20:52:52.791Z,23.70
2022-09-04T20:52:57.625Z,23.70
2022-09-04T20:53:25.460Z,23.70
2022-09-04T20:55:39.088Z,23.60
2022-09-04T21:03:10.993Z,23.60
2022-09-04T21:03:11.377Z,23.60
2022-09-04T21:03:18.528Z,23.60
2022-09-04T21:05:41.487Z,23.50
2022-09-04T21:07:47.634Z,23.50
2022-09-04T21:09:54.896Z,23.50
2022-09-04T21:12:15.918Z,23.50
2022-09-04T21:14:45.218Z,23.50
2022-09-04T21:17:18.761Z,23.50
2022-09-04T21:19:57.569Z,23.50
2022-09-04T21:22:05.392Z,23.40
2022-09-04T21:24:30.450Z,23.40
2022-09-04T21:26:49.709Z,23.40
2022-09-04T21:28:58.284Z,23.40
2022-09-04T21:31:31.805Z,23.30
2022-09-04T21:33:46.944Z,23.30
2022-09-04T21:35:48.618Z,23.30
2022-09-04T21:37:50.237Z,23.30
2022-09-04T21:39:58.276Z,23.20
2022-09-04T21:42:00.356Z,23.20
2022-09-04T21:44:26.534Z,23.20
2022-09-04T21:46:47.183Z,23.10
2022-09-04T21:48:57.847Z,23.10
2022-09-04T21:51:28.731Z,23.10
2022-09-04T21:53:37.198Z,23.10
2022-09-04T21:58:58.573Z,23.00
2022-09-04T22:02:38.833Z,23.10
2022-09-04T22:02:39.689Z,23.00
2022-09-04T22:03:34.889Z,23.00
2022-09-04T22:05:56.340Z,23.00
2022-09-04T22:12:50.217Z,23.00
2022-09-04T22:13:34.247Z,23.00
2022-09-04T22:13:40.086Z,23.00
2022-09-04T22:15:45.315Z,22.90
2022-09-04T22:17:56.125Z,22.90
2022-09-04T22:20:01.190Z,22.80
2022-09-04T22:22:03.643Z,22.90
2022-09-04T22:24:11.393Z,22.90
2022-09-04T22:26:31.918Z,22.90
2022-09-04T22:28:33.576Z,22.90
2022-09-04T22:30:44.380Z,22.90
2022-09-04T22:32:49.115Z,22.90
2022-09-04T22:35:00.034Z,22.90
2022-09-04T22:37:04.554Z,22.90
2022-09-04T22:39:12.169Z,22.80
2022-09-04T22:41:13.786Z,22.90
2022-09-04T22:43:17.690Z,22.90
2022-09-04T22:45:33.365Z,22.90
2022-09-04T22:47:44.359Z,22.80
2022-09-04T22:50:04.839Z,22.80
2022-09-04T22:52:09.900Z,22.80
2022-09-04T22:54:21.097Z,22.80
2022-09-04T22:56:35.958Z,22.80
2022-09-04T22:58:47.205Z,22.80
2022-09-04T23:00:48.915Z,22.70
2022-09-04T23:03:08.477Z,22.80
2022-09-04T23:05:13.857Z,22.80
2022-09-04T23:12:13.501Z,22.70
2022-09-04T23:13:43.649Z,22.70
2022-09-04T23:13:48.168Z,22.70
2022-09-04T23:15:19.298Z,22.70
2022-09-04T23:17:58.315Z,22.70
2022-09-04T23:26:39.193Z,22.70
2022-09-04T23:26:46.044Z,22.70
2022-09-04T23:26:49.612Z,22.70
2022-09-04T23:28:26.981Z,22.70
2022-09-04T23:30:27.834Z,22.70
2022-09-04T23:32:48.069Z,22.70
2022-09-04T23:35:14.787Z,22.60
2022-09-04T23:37:20.320Z,22.70
2022-09-04T23:39:40.882Z,22.70
2022-09-04T23:41:52.895Z,22.70
2022-09-04T23:44:13.942Z,22.70
2022-09-04T23:46:23.896Z,22.70
2022-09-04T23:48:37.869Z,22.60
2022-09-04T23:50:47.441Z,22.70
2022-09-04T23:52:52.351Z,22.70
2022-09-04T23:55:03.295Z,22.70
2022-09-04T23:57:26.311Z,22.70
2022-09-04T23:59:38.281Z,22.70
